sensor_id;sensor_type;location;lat;lon;timestamp;noise_LAeq;noise_LA_min;noise_LA_max;noise_LA01;noise_LA95
73342;Laerm;61578;52.002;5.468;2024-03-02T00:00:12;40.91;38.16;45.77;;
73342;Laerm;61578;52.002;5.468;2024-03-02T00:00:43;40.88;38.83;45.13;;
73342;Laerm;61578;52.002;5.468;2024-03-02T00:01:14;40.77;38.27;44.94;;
73342;Laerm;61578;52.002;5.468;2024-03-02T00:01:48;40.87;38.44;44.94;;
73342;Laerm;61578;52.002;5.468;2024-03-02T00:02:19;40.89;38.27;45.25;;
73342;Laerm;61578;52.002;5.468;2024-03-02T00:02:50;40.95;38.16;45.80;;
73342;Laerm;61578;52.002;5.468;2024-03-02T00:03:21;40.73;38.27;44.62;;
73342;Laerm;61578;52.002;5.468;2024-03-02T00:03:53;40.93;38.37;45.04;;
73342;Laerm;61578;52.002;5.468;2024-03-02T00:04:24;40.82;38.46;45.44;;
73342;Laerm;61578;52.002;5.468;2024-03-02T00:04:58;41.38;38.69;45.99;;
73342;Laerm;61578;52.002;5.468;2024-03-02T00:05:31;41.12;38.66;45.38;;
73342;Laerm;61578;52.002;5.468;2024-03-02T00:06:04;41.12;37.74;45.41;;
73342;Laerm;61578;52.002;5.468;2024-03-02T00:06:36;40.95;38.13;44.85;;
73342;Laerm;61578;52.002;5.468;2024-03-02T00:07:14;41.40;38.37;46.67;;
73342;Laerm;61578;52.002;5.468;2024-03-02T00:07:59;41.53;38.29;45.51;;
73342;Laerm;61578;52.002;5.468;2024-03-02T00:08:30;40.86;38.41;44.65;;
73342;Laerm;61578;52.002;5.468;2024-03-02T00:09:01;40.61;38.13;45.00;;
73342;Laerm;61578;52.002;5.468;2024-03-02T00:09:33;40.58;38.21;45.88;;
73342;Laerm;61578;52.002;5.468;2024-03-02T00:10:09;40.69;38.27;45.84;;
73342;Laerm;61578;52.002;5.468;2024-03-02T00:10:43;40.78;37.91;44.71;;
73342;Laerm;61578;52.002;5.468;2024-03-02T00:11:15;40.52;37.61;45.57;;
73342;Laerm;61578;52.002;5.468;2024-03-02T00:11:46;41.00;38.88;45.05;;
73342;Laerm;61578;52.002;5.468;2024-03-02T00:12:17;40.86;38.74;45.91;;
73342;Laerm;61578;52.002;5.468;2024-03-02T00:12:48;41.06;38.31;45.54;;
73342;Laerm;61578;52.002;5.468;2024-03-02T00:13:22;40.75;37.72;44.94;;
73342;Laerm;61578;52.002;5.468;2024-03-02T00:13:53;40.57;37.94;45.07;;
73342;Laerm;61578;52.002;5.468;2024-03-02T00:14:24;40.53;37.79;45.71;;
73342;Laerm;61578;52.002;5.468;2024-03-02T00:14:55;41.28;37.70;46.63;;
73342;Laerm;61578;52.002;5.468;2024-03-02T00:15:47;41.00;38.58;45.27;;
73342;Laerm;61578;52.002;5.468;2024-03-02T00:16:19;40.88;38.42;45.01;;
73342;Laerm;61578;52.002;5.468;2024-03-02T00:16:51;40.67;38.23;45.92;;
73342;Laerm;61578;52.002;5.468;2024-03-02T00:17:25;40.58;37.52;45.59;;
73342;Laerm;61578;52.002;5.468;2024-03-02T00:17:56;41.24;39.03;46.10;;
73342;Laerm;61578;52.002;5.468;2024-03-02T00:18:38;41.30;38.83;45.16;;
73342;Laerm;61578;52.002;5.468;2024-03-02T00:19:09;41.31;38.75;45.01;;
73342;Laerm;61578;52.002;5.468;2024-03-02T00:19:40;41.58;39.30;45.83;;
73342;Laerm;61578;52.002;5.468;2024-03-02T00:20:22;41.45;38.62;45.79;;
73342;Laerm;61578;52.002;5.468;2024-03-02T00:20:55;41.38;38.55;46.05;;
73342;Laerm;61578;52.002;5.468;2024-03-02T00:21:31;41.22;39.08;45.61;;
73342;Laerm;61578;52.002;5.468;2024-03-02T00:22:03;41.45;39.42;44.98;;
73342;Laerm;61578;52.002;5.468;2024-03-02T00:22:37;41.83;39.34;46.00;;
73342;Laerm;61578;52.002;5.468;2024-03-02T00:23:15;41.64;38.99;45.49;;
73342;Laerm;61578;52.002;5.468;2024-03-02T00:23:48;41.38;38.66;45.10;;
73342;Laerm;61578;52.002;5.468;2024-03-02T00:24:34;41.45;39.45;46.05;;
73342;Laerm;61578;52.002;5.468;2024-03-02T00:25:09;41.31;39.55;46.06;;
73342;Laerm;61578;52.002;5.468;2024-03-02T00:25:52;41.46;39.19;45.66;;
73342;Laerm;61578;52.002;5.468;2024-03-02T00:26:29;41.34;39.19;45.15;;
73342;Laerm;61578;52.002;5.468;2024-03-02T00:27:03;41.90;39.49;48.97;;
73342;Laerm;61578;52.002;5.468;2024-03-02T00:27:34;41.37;38.63;46.14;;
73342;Laerm;61578;52.002;5.468;2024-03-02T00:28:11;41.31;39.28;45.05;;
73342;Laerm;61578;52.002;5.468;2024-03-02T00:28:44;41.42;39.45;46.15;;
73342;Laerm;61578;52.002;5.468;2024-03-02T00:29:17;41.97;38.85;48.04;;
73342;Laerm;61578;52.002;5.468;2024-03-02T00:29:50;41.50;39.02;50.07;;
73342;Laerm;61578;52.002;5.468;2024-03-02T00:31:39;41.29;39.04;45.39;;
73342;Laerm;61578;52.002;5.468;2024-03-02T00:32:15;41.38;38.92;44.85;;
73342;Laerm;61578;52.002;5.468;2024-03-02T00:32:47;41.49;39.46;47.76;;
73342;Laerm;61578;52.002;5.468;2024-03-02T00:33:20;41.37;38.24;45.70;;
73342;Laerm;61578;52.002;5.468;2024-03-02T00:33:51;41.37;39.23;45.50;;
73342;Laerm;61578;52.002;5.468;2024-03-02T00:34:22;41.43;38.41;51.13;;
73342;Laerm;61578;52.002;5.468;2024-03-02T00:34:53;41.33;39.21;45.60;;
73342;Laerm;61578;52.002;5.468;2024-03-02T00:35:24;41.27;38.93;45.18;;
73342;Laerm;61578;52.002;5.468;2024-03-02T00:35:56;41.31;39.09;45.15;;
73342;Laerm;61578;52.002;5.468;2024-03-02T00:36:30;41.45;39.20;46.24;;
73342;Laerm;61578;52.002;5.468;2024-03-02T00:37:01;41.47;38.68;46.50;;
73342;Laerm;61578;52.002;5.468;2024-03-02T00:37:32;41.35;39.34;46.20;;
73342;Laerm;61578;52.002;5.468;2024-03-02T00:38:06;41.45;39.41;46.11;;
73342;Laerm;61578;52.002;5.468;2024-03-02T00:38:47;41.67;39.19;45.36;;
73342;Laerm;61578;52.002;5.468;2024-03-02T00:39:19;42.03;39.68;46.72;;
73342;Laerm;61578;52.002;5.468;2024-03-02T00:39:50;41.56;39.53;45.28;;
73342;Laerm;61578;52.002;5.468;2024-03-02T00:40:21;41.53;39.31;45.52;;
73342;Laerm;61578;52.002;5.468;2024-03-02T00:40:52;41.62;39.27;45.45;;
73342;Laerm;61578;52.002;5.468;2024-03-02T00:41:32;41.63;38.50;45.50;;
73342;Laerm;61578;52.002;5.468;2024-03-02T00:42:03;41.50;39.28;45.23;;
73342;Laerm;61578;52.002;5.468;2024-03-02T00:42:35;41.29;38.72;44.99;;
73342;Laerm;61578;52.002;5.468;2024-03-02T00:44:00;41.56;39.15;46.05;;
73342;Laerm;61578;52.002;5.468;2024-03-02T00:44:33;41.50;38.99;46.06;;
73342;Laerm;61578;52.002;5.468;2024-03-02T00:45:09;41.46;39.17;45.30;;
73342;Laerm;61578;52.002;5.468;2024-03-02T00:45:40;41.71;38.70;46.88;;
73342;Laerm;61578;52.002;5.468;2024-03-02T00:46:13;41.63;39.25;46.60;;
73342;Laerm;61578;52.002;5.468;2024-03-02T00:46:44;41.43;38.57;46.34;;
73342;Laerm;61578;52.002;5.468;2024-03-02T00:47:15;41.49;39.45;45.21;;
73342;Laerm;61578;52.002;5.468;2024-03-02T00:47:45;41.48;39.55;45.88;;
73342;Laerm;61578;52.002;5.468;2024-03-02T00:48:16;41.32;39.52;44.87;;
73342;Laerm;61578;52.002;5.468;2024-03-02T00:49:04;41.72;39.70;48.72;;
73342;Laerm;61578;52.002;5.468;2024-03-02T00:49:35;41.84;39.55;46.61;;
73342;Laerm;61578;52.002;5.468;2024-03-02T00:50:07;41.68;39.43;48.13;;
73342;Laerm;61578;52.002;5.468;2024-03-02T00:50:39;41.89;39.36;46.25;;
73342;Laerm;61578;52.002;5.468;2024-03-02T00:51:10;41.97;39.08;48.64;;
73342;Laerm;61578;52.002;5.468;2024-03-02T00:51:41;41.44;39.13;45.09;;
73342;Laerm;61578;52.002;5.468;2024-03-02T00:52:13;41.33;39.49;44.83;;
73342;Laerm;61578;52.002;5.468;2024-03-02T00:52:44;41.41;39.17;45.41;;
73342;Laerm;61578;52.002;5.468;2024-03-02T00:53:16;41.50;38.42;45.70;;
73342;Laerm;61578;52.002;5.468;2024-03-02T00:53:49;41.27;39.08;45.82;;
73342;Laerm;61578;52.002;5.468;2024-03-02T00:54:24;41.19;38.70;45.86;;
73342;Laerm;61578;52.002;5.468;2024-03-02T00:54:57;41.27;39.27;45.88;;
73342;Laerm;61578;52.002;5.468;2024-03-02T00:55:28;41.32;39.01;45.49;;
73342;Laerm;61578;52.002;5.468;2024-03-02T00:56:01;41.29;39.19;45.14;;
73342;Laerm;61578;52.002;5.468;2024-03-02T00:56:34;41.37;38.99;46.35;;
73342;Laerm;61578;52.002;5.468;2024-03-02T00:57:05;41.40;39.24;46.06;;
73342;Laerm;61578;52.002;5.468;2024-03-02T00:57:36;41.38;39.30;45.08;;
73342;Laerm;61578;52.002;5.468;2024-03-02T00:58:07;41.34;39.54;45.20;;
73342;Laerm;61578;52.002;5.468;2024-03-02T00:58:40;41.33;39.03;45.34;;
73342;Laerm;61578;52.002;5.468;2024-03-02T00:59:11;41.29;39.30;46.60;;
73342;Laerm;61578;52.002;5.468;2024-03-02T00:59:42;41.26;39.18;45.50;;
73342;Laerm;61578;52.002;5.468;2024-03-02T01:00:14;41.38;39.11;45.28;;
73342;Laerm;61578;52.002;5.468;2024-03-02T01:00:45;41.36;38.48;45.49;;
73342;Laerm;61578;52.002;5.468;2024-03-02T01:01:17;41.37;39.44;44.98;;
73342;Laerm;61578;52.002;5.468;2024-03-02T01:01:49;41.38;39.11;45.05;;
73342;Laerm;61578;52.002;5.468;2024-03-02T01:02:20;41.32;39.07;46.13;;
73342;Laerm;61578;52.002;5.468;2024-03-02T01:02:51;41.33;39.24;44.88;;
73342;Laerm;61578;52.002;5.468;2024-03-02T01:03:23;41.34;39.34;46.69;;
73342;Laerm;61578;52.002;5.468;2024-03-02T01:03:54;41.28;39.10;46.01;;
73342;Laerm;61578;52.002;5.468;2024-03-02T01:04:25;41.06;37.75;45.95;;
73342;Laerm;61578;52.002;5.468;2024-03-02T01:04:56;40.49;38.07;44.68;;
73342;Laerm;61578;52.002;5.468;2024-03-02T01:05:27;40.52;38.01;44.76;;
73342;Laerm;61578;52.002;5.468;2024-03-02T01:05:58;40.64;37.89;44.75;;
73342;Laerm;61578;52.002;5.468;2024-03-02T01:06:32;40.77;38.26;45.25;;
73342;Laerm;61578;52.002;5.468;2024-03-02T01:07:02;40.77;38.45;45.10;;
73342;Laerm;61578;52.002;5.468;2024-03-02T01:07:33;40.70;38.49;44.77;;
73342;Laerm;61578;52.002;5.468;2024-03-02T01:08:05;40.99;38.60;45.21;;
73342;Laerm;61578;52.002;5.468;2024-03-02T01:08:36;40.98;38.78;45.17;;
73342;Laerm;61578;52.002;5.468;2024-03-02T01:09:07;40.98;38.25;45.03;;
73342;Laerm;61578;52.002;5.468;2024-03-02T01:09:38;41.03;38.42;45.58;;
73342;Laerm;61578;52.002;5.468;2024-03-02T01:10:09;40.80;38.22;44.94;;
73342;Laerm;61578;52.002;5.468;2024-03-02T01:10:41;40.90;38.40;46.23;;
73342;Laerm;61578;52.002;5.468;2024-03-02T01:11:15;40.87;38.40;45.02;;
73342;Laerm;61578;52.002;5.468;2024-03-02T01:11:48;40.90;38.34;46.58;;
73342;Laerm;61578;52.002;5.468;2024-03-02T01:12:25;40.95;38.63;45.98;;
73342;Laerm;61578;52.002;5.468;2024-03-02T01:12:56;40.82;38.22;44.95;;
73342;Laerm;61578;52.002;5.468;2024-03-02T01:13:27;40.92;38.48;44.79;;
73342;Laerm;61578;52.002;5.468;2024-03-02T01:13:58;41.13;38.42;46.53;;
73342;Laerm;61578;52.002;5.468;2024-03-02T01:14:29;40.87;38.36;44.89;;
73342;Laerm;61578;52.002;5.468;2024-03-02T01:14:59;41.06;38.95;45.22;;
73342;Laerm;61578;52.002;5.468;2024-03-02T01:15:30;41.00;38.62;46.28;;
73342;Laerm;61578;52.002;5.468;2024-03-02T01:16:01;41.07;38.58;46.50;;
73342;Laerm;61578;52.002;5.468;2024-03-02T01:16:33;41.35;39.15;45.40;;
73342;Laerm;61578;52.002;5.468;2024-03-02T01:17:04;41.36;38.91;45.19;;
73342;Laerm;61578;52.002;5.468;2024-03-02T01:17:35;41.20;38.76;45.93;;
73342;Laerm;61578;52.002;5.468;2024-03-02T01:18:05;41.14;38.21;45.34;;
73342;Laerm;61578;52.002;5.468;2024-03-02T01:18:36;41.14;38.92;45.45;;
73342;Laerm;61578;52.002;5.468;2024-03-02T01:19:07;41.16;38.57;45.34;;
73342;Laerm;61578;52.002;5.468;2024-03-02T01:19:38;41.30;38.75;46.39;;
73342;Laerm;61578;52.002;5.468;2024-03-02T01:20:10;41.09;38.67;46.43;;
73342;Laerm;61578;52.002;5.468;2024-03-02T01:20:41;40.93;38.53;45.42;;
73342;Laerm;61578;52.002;5.468;2024-03-02T01:21:12;41.03;38.65;46.92;;
73342;Laerm;61578;52.002;5.468;2024-03-02T01:21:42;41.00;38.66;45.44;;
73342;Laerm;61578;52.002;5.468;2024-03-02T01:22:13;40.82;38.80;45.83;;
73342;Laerm;61578;52.002;5.468;2024-03-02T01:22:44;40.61;38.13;46.59;;
73342;Laerm;61578;52.002;5.468;2024-03-02T01:23:15;41.01;37.65;45.60;;
73342;Laerm;61578;52.002;5.468;2024-03-02T01:23:45;41.09;38.34;45.34;;
73342;Laerm;61578;52.002;5.468;2024-03-02T01:24:16;41.02;38.30;45.70;;
73342;Laerm;61578;52.002;5.468;2024-03-02T01:24:47;41.08;38.32;45.52;;
73342;Laerm;61578;52.002;5.468;2024-03-02T01:25:19;41.32;38.74;46.68;;
73342;Laerm;61578;52.002;5.468;2024-03-02T01:25:52;41.08;38.40;45.51;;
73342;Laerm;61578;52.002;5.468;2024-03-02T01:26:23;41.37;39.03;45.59;;
73342;Laerm;61578;52.002;5.468;2024-03-02T01:26:54;41.41;39.37;45.59;;
73342;Laerm;61578;52.002;5.468;2024-03-02T01:27:25;41.41;38.77;46.72;;
73342;Laerm;61578;52.002;5.468;2024-03-02T01:27:57;41.10;38.59;45.77;;
73342;Laerm;61578;52.002;5.468;2024-03-02T01:28:28;41.26;39.09;45.55;;
73342;Laerm;61578;52.002;5.468;2024-03-02T01:29:02;41.15;38.72;45.26;;
73342;Laerm;61578;52.002;5.468;2024-03-02T01:29:33;40.79;38.47;45.37;;
73342;Laerm;61578;52.002;5.468;2024-03-02T01:30:04;40.47;38.37;45.58;;
73342;Laerm;61578;52.002;5.468;2024-03-02T01:30:35;40.47;37.86;46.40;;
73342;Laerm;61578;52.002;5.468;2024-03-02T01:31:06;40.62;38.08;45.39;;
73342;Laerm;61578;52.002;5.468;2024-03-02T01:31:37;40.87;37.97;46.59;;
73342;Laerm;61578;52.002;5.468;2024-03-02T01:32:08;40.41;37.78;45.35;;
73342;Laerm;61578;52.002;5.468;2024-03-02T01:32:38;40.52;37.92;46.43;;
73342;Laerm;61578;52.002;5.468;2024-03-02T01:33:09;40.77;38.25;46.61;;
73342;Laerm;61578;52.002;5.468;2024-03-02T01:33:40;40.77;38.41;46.17;;
73342;Laerm;61578;52.002;5.468;2024-03-02T01:34:11;40.97;38.50;46.71;;
73342;Laerm;61578;52.002;5.468;2024-03-02T01:34:43;40.84;38.32;45.91;;
73342;Laerm;61578;52.002;5.468;2024-03-02T01:35:14;40.70;38.03;46.94;;
73342;Laerm;61578;52.002;5.468;2024-03-02T01:35:45;40.55;37.61;45.59;;
73342;Laerm;61578;52.002;5.468;2024-03-02T01:36:16;40.74;38.04;46.09;;
73342;Laerm;61578;52.002;5.468;2024-03-02T01:36:47;40.57;37.65;46.35;;
73342;Laerm;61578;52.002;5.468;2024-03-02T01:37:18;40.70;37.78;45.41;;
73342;Laerm;61578;52.002;5.468;2024-03-02T01:37:48;40.71;38.32;45.91;;
73342;Laerm;61578;52.002;5.468;2024-03-02T01:38:19;40.65;37.66;47.04;;
73342;Laerm;61578;52.002;5.468;2024-03-02T01:38:50;40.61;38.03;44.99;;
73342;Laerm;61578;52.002;5.468;2024-03-02T01:39:24;40.70;38.01;46.57;;
73342;Laerm;61578;52.002;5.468;2024-03-02T01:39:55;40.70;38.26;46.85;;
73342;Laerm;61578;52.002;5.468;2024-03-02T01:40:25;40.62;37.70;46.72;;
73342;Laerm;61578;52.002;5.468;2024-03-02T01:40:57;40.54;37.99;46.11;;
73342;Laerm;61578;52.002;5.468;2024-03-02T01:41:29;40.70;37.99;45.41;;
73342;Laerm;61578;52.002;5.468;2024-03-02T01:42:00;40.66;38.05;46.23;;
73342;Laerm;61578;52.002;5.468;2024-03-02T01:42:30;40.75;37.88;51.41;;
73342;Laerm;61578;52.002;5.468;2024-03-02T01:43:01;40.66;37.94;46.09;;
73342;Laerm;61578;52.002;5.468;2024-03-02T01:43:33;40.70;38.20;47.02;;
73342;Laerm;61578;52.002;5.468;2024-03-02T01:44:04;40.59;38.10;45.36;;
73342;Laerm;61578;52.002;5.468;2024-03-02T01:44:35;40.65;37.95;46.65;;
73342;Laerm;61578;52.002;5.468;2024-03-02T01:45:07;40.83;37.93;46.28;;
73342;Laerm;61578;52.002;5.468;2024-03-02T01:45:38;40.62;37.91;46.52;;
73342;Laerm;61578;52.002;5.468;2024-03-02T01:46:10;40.69;38.00;45.41;;
73342;Laerm;61578;52.002;5.468;2024-03-02T01:46:41;40.71;37.83;45.20;;
73342;Laerm;61578;52.002;5.468;2024-03-02T01:47:14;40.58;37.91;45.08;;
73342;Laerm;61578;52.002;5.468;2024-03-02T01:47:45;40.70;37.91;46.58;;
73342;Laerm;61578;52.002;5.468;2024-03-02T01:48:16;40.57;38.16;45.22;;
73342;Laerm;61578;52.002;5.468;2024-03-02T01:48:48;40.54;37.54;45.33;;
73342;Laerm;61578;52.002;5.468;2024-03-02T01:49:18;40.52;37.34;46.95;;
73342;Laerm;61578;52.002;5.468;2024-03-02T01:49:49;40.60;38.06;46.07;;
73342;Laerm;61578;52.002;5.468;2024-03-02T01:50:31;40.73;38.16;45.40;;
73342;Laerm;61578;52.002;5.468;2024-03-02T01:51:01;40.51;37.56;45.81;;
73342;Laerm;61578;52.002;5.468;2024-03-02T01:51:32;40.47;37.74;46.47;;
73342;Laerm;61578;52.002;5.468;2024-03-02T01:52:03;40.52;38.07;46.61;;
73342;Laerm;61578;52.002;5.468;2024-03-02T01:52:34;41.07;38.24;45.38;;
73342;Laerm;61578;52.002;5.468;2024-03-02T01:53:05;40.99;38.42;45.57;;
73342;Laerm;61578;52.002;5.468;2024-03-02T01:53:37;40.70;38.08;45.03;;
73342;Laerm;61578;52.002;5.468;2024-03-02T01:54:08;40.66;38.37;46.60;;
73342;Laerm;61578;52.002;5.468;2024-03-02T01:54:39;40.59;37.85;45.20;;
73342;Laerm;61578;52.002;5.468;2024-03-02T01:55:09;40.60;38.15;46.57;;
73342;Laerm;61578;52.002;5.468;2024-03-02T01:55:40;40.66;38.04;45.42;;
73342;Laerm;61578;52.002;5.468;2024-03-02T01:56:11;40.77;37.76;45.29;;
73342;Laerm;61578;52.002;5.468;2024-03-02T01:56:42;40.69;37.74;46.70;;
73342;Laerm;61578;52.002;5.468;2024-03-02T01:57:13;40.53;38.09;46.77;;
73342;Laerm;61578;52.002;5.468;2024-03-02T01:57:43;40.60;37.77;45.02;;
73342;Laerm;61578;52.002;5.468;2024-03-02T01:58:15;40.55;37.82;45.17;;
73342;Laerm;61578;52.002;5.468;2024-03-02T01:58:46;40.36;37.95;46.08;;
73342;Laerm;61578;52.002;5.468;2024-03-02T01:59:17;40.69;37.63;46.91;;
73342;Laerm;61578;52.002;5.468;2024-03-02T01:59:49;40.51;37.52;47.01;;
73342;Laerm;61578;52.002;5.468;2024-03-02T02:00:22;40.64;37.76;46.60;;
73342;Laerm;61578;52.002;5.468;2024-03-02T02:00:55;40.51;37.79;45.40;;
73342;Laerm;61578;52.002;5.468;2024-03-02T02:01:25;40.56;37.90;45.50;;
73342;Laerm;61578;52.002;5.468;2024-03-02T02:01:57;40.58;38.23;45.08;;
73342;Laerm;61578;52.002;5.468;2024-03-02T02:02:28;40.60;38.57;45.06;;
73342;Laerm;61578;52.002;5.468;2024-03-02T02:02:59;40.47;37.93;46.45;;
73342;Laerm;61578;52.002;5.468;2024-03-02T02:03:30;40.67;38.26;46.61;;
73342;Laerm;61578;52.002;5.468;2024-03-02T02:04:01;40.80;38.03;46.28;;
73342;Laerm;61578;52.002;5.468;2024-03-02T02:04:31;40.56;38.31;45.42;;
73342;Laerm;61578;52.002;5.468;2024-03-02T02:05:03;40.57;38.02;45.25;;
73342;Laerm;61578;52.002;5.468;2024-03-02T02:05:35;40.66;37.73;46.01;;
73342;Laerm;61578;52.002;5.468;2024-03-02T02:06:05;40.65;37.79;46.66;;
73342;Laerm;61578;52.002;5.468;2024-03-02T02:06:37;40.48;37.61;46.82;;
73342;Laerm;61578;52.002;5.468;2024-03-02T02:07:08;40.50;38.20;46.57;;
73342;Laerm;61578;52.002;5.468;2024-03-02T02:07:41;40.39;37.78;45.08;;
73342;Laerm;61578;52.002;5.468;2024-03-02T02:08:18;40.42;38.14;46.70;;
73342;Laerm;61578;52.002;5.468;2024-03-02T02:08:48;40.46;38.19;45.18;;
73342;Laerm;61578;52.002;5.468;2024-03-02T02:09:19;40.44;37.32;45.13;;
73342;Laerm;61578;52.002;5.468;2024-03-02T02:09:50;40.46;37.92;45.76;;
73342;Laerm;61578;52.002;5.468;2024-03-02T02:10:21;40.60;38.20;46.63;;
73342;Laerm;61578;52.002;5.468;2024-03-02T02:10:52;40.59;37.81;48.26;;
73342;Laerm;61578;52.002;5.468;2024-03-02T02:11:24;41.34;37.79;47.88;;
73342;Laerm;61578;52.002;5.468;2024-03-02T02:11:55;40.75;37.96;47.38;;
73342;Laerm;61578;52.002;5.468;2024-03-02T02:12:26;40.88;37.94;46.76;;
73342;Laerm;61578;52.002;5.468;2024-03-02T02:12:57;40.66;38.04;47.80;;
73342;Laerm;61578;52.002;5.468;2024-03-02T02:13:28;40.92;38.27;46.92;;
73342;Laerm;61578;52.002;5.468;2024-03-02T02:13:59;40.81;38.59;45.49;;
73342;Laerm;61578;52.002;5.468;2024-03-02T02:14:30;41.04;38.59;51.19;;
73342;Laerm;61578;52.002;5.468;2024-03-02T02:15:01;40.68;37.45;46.89;;
73342;Laerm;61578;52.002;5.468;2024-03-02T02:15:32;40.86;38.42;46.08;;
73342;Laerm;61578;52.002;5.468;2024-03-02T02:16:09;40.93;38.50;49.32;;
73342;Laerm;61578;52.002;5.468;2024-03-02T02:16:39;40.90;38.66;49.35;;
73342;Laerm;61578;52.002;5.468;2024-03-02T02:17:10;41.04;38.51;45.63;;
73342;Laerm;61578;52.002;5.468;2024-03-02T02:17:41;41.51;38.50;57.18;;
73342;Laerm;61578;52.002;5.468;2024-03-02T02:18:15;41.63;38.85;53.37;;
73342;Laerm;61578;52.002;5.468;2024-03-02T02:18:46;41.41;38.69;53.10;;
73342;Laerm;61578;52.002;5.468;2024-03-02T02:19:16;41.62;38.91;53.22;;
73342;Laerm;61578;52.002;5.468;2024-03-02T02:19:48;41.46;39.01;53.20;;
73342;Laerm;61578;52.002;5.468;2024-03-02T02:20:18;41.59;38.84;53.07;;
73342;Laerm;61578;52.002;5.468;2024-03-02T02:20:49;41.31;38.55;52.96;;
73342;Laerm;61578;52.002;5.468;2024-03-02T02:21:23;41.11;38.71;48.64;;
73342;Laerm;61578;52.002;5.468;2024-03-02T02:21:55;41.12;38.24;47.76;;
73342;Laerm;61578;52.002;5.468;2024-03-02T02:22:26;40.97;38.81;46.40;;
73342;Laerm;61578;52.002;5.468;2024-03-02T02:23:02;41.06;38.53;54.46;;
73342;Laerm;61578;52.002;5.468;2024-03-02T02:23:33;40.98;38.70;50.38;;
73342;Laerm;61578;52.002;5.468;2024-03-02T02:24:04;40.93;37.97;45.62;;
73342;Laerm;61578;52.002;5.468;2024-03-02T02:24:35;40.91;37.95;45.12;;
73342;Laerm;61578;52.002;5.468;2024-03-02T02:25:06;41.05;38.53;46.53;;
73342;Laerm;61578;52.002;5.468;2024-03-02T02:25:37;40.75;38.41;48.12;;
73342;Laerm;61578;52.002;5.468;2024-03-02T02:26:10;41.06;38.61;46.71;;
73342;Laerm;61578;52.002;5.468;2024-03-02T02:26:41;40.87;37.89;49.15;;
73342;Laerm;61578;52.002;5.468;2024-03-02T02:27:12;40.88;38.32;54.02;;
73342;Laerm;61578;52.002;5.468;2024-03-02T02:27:45;40.71;38.13;44.20;;
73342;Laerm;61578;52.002;5.468;2024-03-02T02:28:16;40.85;37.88;48.08;;
73342;Laerm;61578;52.002;5.468;2024-03-02T02:28:47;40.70;38.55;44.48;;
73342;Laerm;61578;52.002;5.468;2024-03-02T02:29:18;40.71;38.06;44.60;;
73342;Laerm;61578;52.002;5.468;2024-03-02T02:29:49;40.79;38.63;45.02;;
73342;Laerm;61578;52.002;5.468;2024-03-02T02:30:31;40.71;38.28;44.30;;
73342;Laerm;61578;52.002;5.468;2024-03-02T02:31:05;41.14;38.82;59.50;;
73342;Laerm;61578;52.002;5.468;2024-03-02T02:31:40;40.92;38.48;46.86;;
73342;Laerm;61578;52.002;5.468;2024-03-02T02:32:12;40.80;38.17;46.63;;
73342;Laerm;61578;52.002;5.468;2024-03-02T02:32:45;40.88;38.35;49.06;;
73342;Laerm;61578;52.002;5.468;2024-03-02T02:33:16;41.46;38.15;60.89;;
73342;Laerm;61578;52.002;5.468;2024-03-02T02:33:47;40.96;38.56;46.35;;
73342;Laerm;61578;52.002;5.468;2024-03-02T02:34:18;41.03;38.31;50.40;;
73342;Laerm;61578;52.002;5.468;2024-03-02T02:34:52;40.94;38.56;54.35;;
73342;Laerm;61578;52.002;5.468;2024-03-02T02:35:23;41.63;38.36;63.28;;
73342;Laerm;61578;52.002;5.468;2024-03-02T02:35:57;41.50;38.76;59.96;;
73342;Laerm;61578;52.002;5.468;2024-03-02T02:36:27;42.33;38.42;65.88;;
73342;Laerm;61578;52.002;5.468;2024-03-02T02:36:58;40.79;38.54;46.43;;
73342;Laerm;61578;52.002;5.468;2024-03-02T02:37:29;40.85;38.34;51.16;;
73342;Laerm;61578;52.002;5.468;2024-03-02T02:38:01;40.74;37.98;55.07;;
73342;Laerm;61578;52.002;5.468;2024-03-02T02:38:43;40.66;37.72;44.48;;
73342;Laerm;61578;52.002;5.468;2024-03-02T02:39:21;40.63;37.77;48.61;;
73342;Laerm;61578;52.002;5.468;2024-03-02T02:39:53;40.64;38.37;52.41;;
73342;Laerm;61578;52.002;5.468;2024-03-02T02:40:23;40.60;38.34;44.00;;
73342;Laerm;61578;52.002;5.468;2024-03-02T02:40:54;40.51;38.30;50.96;;
73342;Laerm;61578;52.002;5.468;2024-03-02T02:41:25;40.46;37.98;43.93;;
73342;Laerm;61578;52.002;5.468;2024-03-02T02:41:56;40.44;38.38;44.22;;
73342;Laerm;61578;52.002;5.468;2024-03-02T02:42:26;40.61;38.37;44.25;;
73342;Laerm;61578;52.002;5.468;2024-03-02T02:42:58;40.42;38.27;43.79;;
73342;Laerm;61578;52.002;5.468;2024-03-02T02:43:29;40.38;37.86;44.42;;
73342;Laerm;61578;52.002;5.468;2024-03-02T02:44:00;40.44;37.78;43.75;;
73342;Laerm;61578;52.002;5.468;2024-03-02T02:44:34;40.45;37.80;53.14;;
73342;Laerm;61578;52.002;5.468;2024-03-02T02:45:06;40.42;37.78;44.25;;
73342;Laerm;61578;52.002;5.468;2024-03-02T02:45:37;40.40;38.04;44.27;;
73342;Laerm;61578;52.002;5.468;2024-03-02T02:46:08;40.31;37.60;45.58;;
73342;Laerm;61578;52.002;5.468;2024-03-02T02:46:39;40.38;37.40;45.10;;
73342;Laerm;61578;52.002;5.468;2024-03-02T02:47:10;40.31;37.50;44.65;;
73342;Laerm;61578;52.002;5.468;2024-03-02T02:47:42;40.54;38.06;43.73;;
73342;Laerm;61578;52.002;5.468;2024-03-02T02:48:13;40.54;37.28;44.80;;
73342;Laerm;61578;52.002;5.468;2024-03-02T02:48:46;40.39;37.38;44.47;;
73342;Laerm;61578;52.002;5.468;2024-03-02T02:49:17;40.67;37.43;44.33;;
73342;Laerm;61578;52.002;5.468;2024-03-02T02:49:48;41.72;37.15;53.57;;
73342;Laerm;61578;52.002;5.468;2024-03-02T02:50:19;40.38;37.76;44.16;;
73342;Laerm;61578;52.002;5.468;2024-03-02T02:50:49;40.41;37.71;44.66;;
73342;Laerm;61578;52.002;5.468;2024-03-02T02:51:23;40.21;37.01;44.65;;
73342;Laerm;61578;52.002;5.468;2024-03-02T02:51:55;40.20;37.38;43.43;;
73342;Laerm;61578;52.002;5.468;2024-03-02T02:52:34;40.65;38.16;44.52;;
73342;Laerm;61578;52.002;5.468;2024-03-02T02:53:06;40.70;38.28;51.00;;
73342;Laerm;61578;52.002;5.468;2024-03-02T02:53:40;42.98;38.54;59.06;;
73342;Laerm;61578;52.002;5.468;2024-03-02T02:54:11;42.60;39.46;48.46;;
73342;Laerm;61578;52.002;5.468;2024-03-02T02:54:42;41.78;38.52;53.53;;
73342;Laerm;61578;52.002;5.468;2024-03-02T02:55:13;40.77;38.34;47.20;;
73342;Laerm;61578;52.002;5.468;2024-03-02T02:55:46;40.72;38.39;46.99;;
73342;Laerm;61578;52.002;5.468;2024-03-02T02:56:17;40.76;37.86;44.68;;
73342;Laerm;61578;52.002;5.468;2024-03-02T02:56:48;40.63;37.87;44.37;;
73342;Laerm;61578;52.002;5.468;2024-03-02T02:57:19;40.58;38.40;44.72;;
73342;Laerm;61578;52.002;5.468;2024-03-02T02:57:50;40.67;38.56;44.60;;
73342;Laerm;61578;52.002;5.468;2024-03-02T02:58:21;40.64;38.28;44.11;;
73342;Laerm;61578;52.002;5.468;2024-03-02T02:58:52;40.58;38.12;43.98;;
73342;Laerm;61578;52.002;5.468;2024-03-02T02:59:22;40.43;37.93;44.41;;
73342;Laerm;61578;52.002;5.468;2024-03-02T02:59:53;40.53;38.25;44.08;;
73342;Laerm;61578;52.002;5.468;2024-03-02T03:00:27;40.76;37.50;53.37;;
73342;Laerm;61578;52.002;5.468;2024-03-02T03:00:58;40.32;37.92;44.94;;
73342;Laerm;61578;52.002;5.468;2024-03-02T03:01:29;40.04;37.80;43.59;;
73342;Laerm;61578;52.002;5.468;2024-03-02T03:02:00;40.94;37.92;57.37;;